Aérodrome :
LOGIN :

S'inscrire | Disclaimer

   EN    FR    IT 

 










Légende :    VFR   VFR Marginal   IFR   IFR Intensif   IFR Très Intensif
Visi : 
Plafond : 
>= 8 km
>= 3000ft
5 à 8 km
1000 à 3000 ft
1500m à 5 km
500 à 1000 ft
800 à 1500m
200 à 500 ft
< 800m
< 200 ft
Symboles :   Orages  Brouillard  Fortes neiges  Fortes précipitations  Vent > 20 kt
SIGMETs :   Divers  Orages  Givrage  Turbulence  Onde Orograph.  Cendres Volcan.






- Altitude de l'aérodrome : 436 ft
- Code IATA : ANG


LFBU - Angoulême Brie Champniers

DERNIER METAR :
  • 271700Z AUTO 21006KT 170V240 9999 OVC003 11/11 Q1019 TEMPO 1500 RADZ

METARs EXPIRÉS :
  • 271630Z AUTO 22004KT 190V270 5000 -RA BR OVC002/// ///CB 11/11 Q1019 TEMPO 1500 RADZ OVC002
  • 271600Z AUTO 23005KT 3500 RA BR OVC002/// ///CB 11/11 Q1019 TEMPO 1500 RADZ OVC002
  • 271530Z AUTO 23005KT 200V260 2100 RA BR OVC004/// ///CB 11/11 Q1019 TEMPO OVC002
  • 271500Z AUTO 22004KT 190V250 9999 OVC005 11/11 Q1019 TEMPO 1500 RADZ
  • 271430Z AUTO 23004KT 190V260 9999 -RA BKN009 OVC016 11/11 Q1019 TEMPO 1500 RADZ OVC002

TAF AMD TAF LFBU
Valide du 27 à 13h jusqu'au 28 à 12h UTC


271306Z 2713/2812 19005KT 9999 OVC006
TEMPO 2713/2715 2000 BR OVC002
PROB40
TEMPO 2713/2715 0800 FG OVC001
TEMPO 2715/2807 1500 RADZ OVC002
BECMG 2723/2801 25010KT
BECMG 2809/2811 BKN010



MET'MAP, la Météo Aéronautique d'un coup d'oeil ! - Copyright ORBIFLY Décembre 2007 - Disclaimer

ORBIFLY MET'MAP TEAM :

Programmation & Développement : Alexandra Zaïnal
Sur une idée originale de : Baudouin d'Aumeries
Assistance à la programmation : Marc-Olivier Méhu
Soutien technique & logistique : Manuel Goepfert

Contact : metmap@orbifly.com




SOURCES & CREDITS :

   NOAA